sensor_id;sensor_type;location;lat;lon;timestamp;P1;durP1;ratioP1;P2;durP2;ratioP2
81353;SDS011;70810;52.038;8.524;2024-03-02T00:01:50;36.05;;;12.35;;
81353;SDS011;70810;52.038;8.524;2024-03-02T00:04:18;69.50;;;17.60;;
81353;SDS011;70810;52.038;8.524;2024-03-02T00:06:46;41.92;;;10.20;;
81353;SDS011;70810;52.038;8.524;2024-03-02T00:09:13;40.90;;;10.60;;
81353;SDS011;70810;52.038;8.524;2024-03-02T00:11:45;61.47;;;13.25;;
81353;SDS011;70810;52.038;8.524;2024-03-02T00:14:14;20.70;;;9.18;;
81353;SDS011;70810;52.038;8.524;2024-03-02T00:16:41;35.97;;;10.77;;
81353;SDS011;70810;52.038;8.524;2024-03-02T00:19:09;36.45;;;11.75;;
81353;SDS011;70810;52.038;8.524;2024-03-02T00:21:36;53.15;;;11.90;;
81353;SDS011;70810;52.038;8.524;2024-03-02T00:24:06;47.58;;;10.70;;
81353;SDS011;70810;52.038;8.524;2024-03-02T00:26:56;26.27;;;10.07;;
81353;SDS011;70810;52.038;8.524;2024-03-02T00:29:24;33.63;;;11.10;;
81353;SDS011;70810;52.038;8.524;2024-03-02T00:31:52;48.05;;;11.80;;
81353;SDS011;70810;52.038;8.524;2024-03-02T00:34:20;50.55;;;11.25;;
81353;SDS011;70810;52.038;8.524;2024-03-02T00:36:48;51.78;;;11.60;;
81353;SDS011;70810;52.038;8.524;2024-03-02T00:39:18;51.97;;;11.35;;
81353;SDS011;70810;52.038;8.524;2024-03-02T00:41:48;48.05;;;12.05;;
81353;SDS011;70810;52.038;8.524;2024-03-02T00:44:16;31.02;;;11.80;;
81353;SDS011;70810;52.038;8.524;2024-03-02T00:46:47;57.92;;;13.68;;
81353;SDS011;70810;52.038;8.524;2024-03-02T00:49:18;54.90;;;12.18;;
81353;SDS011;70810;52.038;8.524;2024-03-02T00:51:47;52.53;;;13.20;;
81353;SDS011;70810;52.038;8.524;2024-03-02T00:54:19;37.00;;;13.35;;
81353;SDS011;70810;52.038;8.524;2024-03-02T00:56:49;37.95;;;11.20;;
81353;SDS011;70810;52.038;8.524;2024-03-02T00:59:18;52.28;;;12.43;;
81353;SDS011;70810;52.038;8.524;2024-03-02T01:01:45;37.13;;;10.65;;
81353;SDS011;70810;52.038;8.524;2024-03-02T01:04:12;51.08;;;12.10;;
81353;SDS011;70810;52.038;8.524;2024-03-02T01:06:41;54.20;;;12.20;;
81353;SDS011;70810;52.038;8.524;2024-03-02T01:09:08;41.05;;;10.15;;
81353;SDS011;70810;52.038;8.524;2024-03-02T01:11:38;35.67;;;12.18;;
81353;SDS011;70810;52.038;8.524;2024-03-02T01:14:06;30.60;;;11.45;;
81353;SDS011;70810;52.038;8.524;2024-03-02T01:16:48;47.60;;;11.80;;
81353;SDS011;70810;52.038;8.524;2024-03-02T01:19:15;66.13;;;13.68;;
81353;SDS011;70810;52.038;8.524;2024-03-02T01:21:44;63.35;;;12.55;;
81353;SDS011;70810;52.038;8.524;2024-03-02T01:24:11;50.63;;;11.75;;
81353;SDS011;70810;52.038;8.524;2024-03-02T01:26:38;35.08;;;11.25;;
81353;SDS011;70810;52.038;8.524;2024-03-02T01:29:05;53.65;;;13.43;;
81353;SDS011;70810;52.038;8.524;2024-03-02T01:31:32;35.35;;;11.38;;
81353;SDS011;70810;52.038;8.524;2024-03-02T01:34:01;45.58;;;12.43;;
81353;SDS011;70810;52.038;8.524;2024-03-02T01:36:28;48.20;;;12.10;;
81353;SDS011;70810;52.038;8.524;2024-03-02T01:38:54;76.65;;;12.90;;
81353;SDS011;70810;52.038;8.524;2024-03-02T01:41:21;57.63;;;11.88;;
81353;SDS011;70810;52.038;8.524;2024-03-02T01:43:48;33.42;;;10.68;;
81353;SDS011;70810;52.038;8.524;2024-03-02T01:46:17;27.25;;;9.57;;
81353;SDS011;70810;52.038;8.524;2024-03-02T01:48:45;38.58;;;10.82;;
81353;SDS011;70810;52.038;8.524;2024-03-02T01:51:14;56.72;;;11.60;;
81353;SDS011;70810;52.038;8.524;2024-03-02T01:53:42;40.20;;;10.43;;
81353;SDS011;70810;52.038;8.524;2024-03-02T01:56:09;44.58;;;11.85;;
81353;SDS011;70810;52.038;8.524;2024-03-02T01:58:36;34.92;;;10.38;;
81353;SDS011;70810;52.038;8.524;2024-03-02T02:01:03;36.85;;;10.35;;
81353;SDS011;70810;52.038;8.524;2024-03-02T02:03:30;67.65;;;12.10;;
81353;SDS011;70810;52.038;8.524;2024-03-02T02:05:57;41.42;;;10.52;;
81353;SDS011;70810;52.038;8.524;2024-03-02T02:08:25;33.10;;;9.43;;
81353;SDS011;70810;52.038;8.524;2024-03-02T02:10:55;38.03;;;10.02;;
81353;SDS011;70810;52.038;8.524;2024-03-02T02:13:22;44.38;;;10.65;;
81353;SDS011;70810;52.038;8.524;2024-03-02T02:15:49;60.30;;;11.07;;
81353;SDS011;70810;52.038;8.524;2024-03-02T02:18:19;37.75;;;9.30;;
81353;SDS011;70810;52.038;8.524;2024-03-02T02:20:47;39.33;;;10.80;;
81353;SDS011;70810;52.038;8.524;2024-03-02T02:23:16;39.15;;;9.93;;
81353;SDS011;70810;52.038;8.524;2024-03-02T02:25:43;41.50;;;10.45;;
81353;SDS011;70810;52.038;8.524;2024-03-02T02:28:10;28.40;;;10.38;;
81353;SDS011;70810;52.038;8.524;2024-03-02T02:30:37;30.35;;;9.85;;
81353;SDS011;70810;52.038;8.524;2024-03-02T02:33:03;26.85;;;9.70;;
81353;SDS011;70810;52.038;8.524;2024-03-02T02:35:31;58.60;;;11.55;;
81353;SDS011;70810;52.038;8.524;2024-03-02T02:38:00;42.80;;;12.52;;
81353;SDS011;70810;52.038;8.524;2024-03-02T02:40:33;47.50;;;11.48;;
81353;SDS011;70810;52.038;8.524;2024-03-02T02:43:08;47.40;;;10.57;;
81353;SDS011;70810;52.038;8.524;2024-03-02T02:45:35;41.63;;;12.25;;
81353;SDS011;70810;52.038;8.524;2024-03-02T02:48:05;43.33;;;11.20;;
81353;SDS011;70810;52.038;8.524;2024-03-02T02:50:32;70.10;;;15.38;;
81353;SDS011;70810;52.038;8.524;2024-03-02T02:53:00;60.00;;;12.93;;
81353;SDS011;70810;52.038;8.524;2024-03-02T02:55:27;31.30;;;10.52;;
81353;SDS011;70810;52.038;8.524;2024-03-02T02:57:59;34.25;;;11.00;;
81353;SDS011;70810;52.038;8.524;2024-03-02T03:00:26;47.58;;;10.70;;
81353;SDS011;70810;52.038;8.524;2024-03-02T03:02:54;35.10;;;9.82;;
81353;SDS011;70810;52.038;8.524;2024-03-02T03:05:21;40.20;;;10.13;;
81353;SDS011;70810;52.038;8.524;2024-03-02T03:07:49;46.38;;;9.63;;
81353;SDS011;70810;52.038;8.524;2024-03-02T03:10:16;38.45;;;10.25;;
81353;SDS011;70810;52.038;8.524;2024-03-02T03:12:48;42.45;;;11.23;;
81353;SDS011;70810;52.038;8.524;2024-03-02T03:15:18;41.42;;;10.00;;
81353;SDS011;70810;52.038;8.524;2024-03-02T03:17:46;29.40;;;10.23;;
81353;SDS011;70810;52.038;8.524;2024-03-02T03:20:14;35.33;;;11.32;;
81353;SDS011;70810;52.038;8.524;2024-03-02T03:22:41;57.40;;;10.90;;
81353;SDS011;70810;52.038;8.524;2024-03-02T03:25:08;66.95;;;12.25;;
81353;SDS011;70810;52.038;8.524;2024-03-02T03:27:35;51.30;;;11.10;;
81353;SDS011;70810;52.038;8.524;2024-03-02T03:30:04;26.85;;;10.32;;
81353;SDS011;70810;52.038;8.524;2024-03-02T03:32:34;41.90;;;11.30;;
81353;SDS011;70810;52.038;8.524;2024-03-02T03:35:01;29.38;;;11.30;;
81353;SDS011;70810;52.038;8.524;2024-03-02T03:37:30;41.17;;;10.55;;
81353;SDS011;70810;52.038;8.524;2024-03-02T03:39:58;71.38;;;13.13;;
81353;SDS011;70810;52.038;8.524;2024-03-02T03:42:25;72.97;;;13.77;;
81353;SDS011;70810;52.038;8.524;2024-03-02T03:44:55;30.02;;;11.35;;
81353;SDS011;70810;52.038;8.524;2024-03-02T03:47:22;31.20;;;11.60;;
81353;SDS011;70810;52.038;8.524;2024-03-02T03:49:52;37.65;;;12.15;;
81353;SDS011;70810;52.038;8.524;2024-03-02T03:52:18;50.72;;;12.38;;
81353;SDS011;70810;52.038;8.524;2024-03-02T03:54:48;51.35;;;12.93;;
81353;SDS011;70810;52.038;8.524;2024-03-02T03:57:15;61.08;;;14.88;;
81353;SDS011;70810;52.038;8.524;2024-03-02T03:59:44;55.35;;;12.73;;
81353;SDS011;70810;52.038;8.524;2024-03-02T04:02:11;49.42;;;12.57;;
81353;SDS011;70810;52.038;8.524;2024-03-02T04:04:38;32.28;;;11.85;;
81353;SDS011;70810;52.038;8.524;2024-03-02T04:07:12;40.28;;;13.13;;
81353;SDS011;70810;52.038;8.524;2024-03-02T04:09:39;38.72;;;15.02;;
81353;SDS011;70810;52.038;8.524;2024-03-02T04:12:08;43.22;;;13.98;;
81353;SDS011;70810;52.038;8.524;2024-03-02T04:14:35;39.42;;;13.20;;
81353;SDS011;70810;52.038;8.524;2024-03-02T04:17:04;37.42;;;13.82;;
81353;SDS011;70810;52.038;8.524;2024-03-02T04:19:31;36.67;;;13.77;;
81353;SDS011;70810;52.038;8.524;2024-03-02T04:21:58;36.35;;;13.73;;
81353;SDS011;70810;52.038;8.524;2024-03-02T04:24:28;61.40;;;14.27;;
81353;SDS011;70810;52.038;8.524;2024-03-02T04:26:56;51.22;;;14.52;;
81353;SDS011;70810;52.038;8.524;2024-03-02T04:29:23;67.10;;;16.10;;
81353;SDS011;70810;52.038;8.524;2024-03-02T04:31:50;79.05;;;19.08;;
81353;SDS011;70810;52.038;8.524;2024-03-02T04:34:16;91.22;;;20.80;;
81353;SDS011;70810;52.038;8.524;2024-03-02T04:36:43;53.97;;;16.33;;
81353;SDS011;70810;52.038;8.524;2024-03-02T04:39:11;48.00;;;14.38;;
81353;SDS011;70810;52.038;8.524;2024-03-02T04:41:39;75.70;;;17.70;;
81353;SDS011;70810;52.038;8.524;2024-03-02T04:44:09;46.72;;;14.43;;
81353;SDS011;70810;52.038;8.524;2024-03-02T04:46:39;34.70;;;14.10;;
81353;SDS011;70810;52.038;8.524;2024-03-02T04:49:07;53.45;;;19.23;;
81353;SDS011;70810;52.038;8.524;2024-03-02T04:51:33;72.90;;;19.33;;
81353;SDS011;70810;52.038;8.524;2024-03-02T04:54:00;49.45;;;15.45;;
81353;SDS011;70810;52.038;8.524;2024-03-02T04:56:28;55.22;;;16.38;;
81353;SDS011;70810;52.038;8.524;2024-03-02T04:59:13;70.60;;;18.98;;
81353;SDS011;70810;52.038;8.524;2024-03-02T05:01:38;53.13;;;15.90;;
81353;SDS011;70810;52.038;8.524;2024-03-02T05:04:07;89.18;;;20.35;;
81353;SDS011;70810;52.038;8.524;2024-03-02T05:06:33;50.72;;;23.77;;
81353;SDS011;70810;52.038;8.524;2024-03-02T05:09:01;68.72;;;17.83;;
81353;SDS011;70810;52.038;8.524;2024-03-02T05:11:29;56.63;;;17.70;;
81353;SDS011;70810;52.038;8.524;2024-03-02T05:14:27;57.55;;;16.02;;
81353;SDS011;70810;52.038;8.524;2024-03-02T05:16:54;38.03;;;15.43;;
81353;SDS011;70810;52.038;8.524;2024-03-02T05:19:23;56.35;;;16.92;;
81353;SDS011;70810;52.038;8.524;2024-03-02T05:21:50;44.40;;;16.80;;
81353;SDS011;70810;52.038;8.524;2024-03-02T05:24:21;65.63;;;17.15;;
81353;SDS011;70810;52.038;8.524;2024-03-02T05:26:48;52.83;;;16.95;;
81353;SDS011;70810;52.038;8.524;2024-03-02T05:29:16;38.65;;;15.57;;
81353;SDS011;70810;52.038;8.524;2024-03-02T05:31:45;65.65;;;15.75;;
81353;SDS011;70810;52.038;8.524;2024-03-02T05:34:14;69.68;;;18.33;;
81353;SDS011;70810;52.038;8.524;2024-03-02T05:36:41;81.55;;;19.25;;
81353;SDS011;70810;52.038;8.524;2024-03-02T05:39:09;53.88;;;17.30;;
81353;SDS011;70810;52.038;8.524;2024-03-02T05:41:37;68.78;;;18.02;;
81353;SDS011;70810;52.038;8.524;2024-03-02T05:44:05;50.78;;;16.20;;
81353;SDS011;70810;52.038;8.524;2024-03-02T05:46:32;53.88;;;16.45;;
81353;SDS011;70810;52.038;8.524;2024-03-02T05:49:04;67.88;;;18.75;;
81353;SDS011;70810;52.038;8.524;2024-03-02T05:51:36;48.53;;;17.27;;
81353;SDS011;70810;52.038;8.524;2024-03-02T05:54:03;83.88;;;18.42;;
81353;SDS011;70810;52.038;8.524;2024-03-02T05:56:29;63.67;;;18.25;;
81353;SDS011;70810;52.038;8.524;2024-03-02T05:58:58;40.58;;;15.27;;
81353;SDS011;70810;52.038;8.524;2024-03-02T06:01:37;62.65;;;17.00;;
81353;SDS011;70810;52.038;8.524;2024-03-02T06:04:05;63.13;;;19.50;;
81353;SDS011;70810;52.038;8.524;2024-03-02T06:06:32;58.60;;;20.23;;
81353;SDS011;70810;52.038;8.524;2024-03-02T06:08:59;87.07;;;20.65;;
81353;SDS011;70810;52.038;8.524;2024-03-02T06:11:33;41.13;;;16.30;;
81353;SDS011;70810;52.038;8.524;2024-03-02T06:14:01;49.28;;;16.73;;
81353;SDS011;70810;52.038;8.524;2024-03-02T06:16:32;47.33;;;18.20;;
81353;SDS011;70810;52.038;8.524;2024-03-02T06:18:59;67.05;;;18.20;;
81353;SDS011;70810;52.038;8.524;2024-03-02T06:21:33;61.28;;;16.17;;
81353;SDS011;70810;52.038;8.524;2024-03-02T06:24:00;44.47;;;15.38;;
81353;SDS011;70810;52.038;8.524;2024-03-02T06:26:28;78.00;;;17.35;;
81353;SDS011;70810;52.038;8.524;2024-03-02T06:28:55;38.80;;;16.02;;
81353;SDS011;70810;52.038;8.524;2024-03-02T06:31:23;75.32;;;16.88;;
81353;SDS011;70810;52.038;8.524;2024-03-02T06:33:50;42.72;;;16.30;;
81353;SDS011;70810;52.038;8.524;2024-03-02T06:36:20;42.78;;;17.33;;
81353;SDS011;70810;52.038;8.524;2024-03-02T06:39:21;51.42;;;14.57;;
81353;SDS011;70810;52.038;8.524;2024-03-02T06:41:49;32.40;;;15.25;;
81353;SDS011;70810;52.038;8.524;2024-03-02T06:44:18;57.95;;;18.33;;
81353;SDS011;70810;52.038;8.524;2024-03-02T06:46:46;38.97;;;14.38;;
81353;SDS011;70810;52.038;8.524;2024-03-02T06:49:13;46.30;;;14.68;;
81353;SDS011;70810;52.038;8.524;2024-03-02T06:51:40;46.85;;;15.32;;
81353;SDS011;70810;52.038;8.524;2024-03-02T06:54:07;80.20;;;15.45;;
81353;SDS011;70810;52.038;8.524;2024-03-02T06:56:35;75.97;;;15.98;;
81353;SDS011;70810;52.038;8.524;2024-03-02T06:59:03;42.00;;;15.13;;
81353;SDS011;70810;52.038;8.524;2024-03-02T07:01:30;54.30;;;15.18;;
81353;SDS011;70810;52.038;8.524;2024-03-02T07:03:57;27.98;;;13.43;;
81353;SDS011;70810;52.038;8.524;2024-03-02T07:06:24;36.33;;;14.25;;
81353;SDS011;70810;52.038;8.524;2024-03-02T07:08:53;38.13;;;13.93;;
81353;SDS011;70810;52.038;8.524;2024-03-02T07:11:24;72.72;;;15.77;;
81353;SDS011;70810;52.038;8.524;2024-03-02T07:13:55;44.97;;;16.00;;
81353;SDS011;70810;52.038;8.524;2024-03-02T07:16:21;39.08;;;13.23;;
81353;SDS011;70810;52.038;8.524;2024-03-02T07:18:55;50.20;;;14.85;;
81353;SDS011;70810;52.038;8.524;2024-03-02T07:21:22;34.88;;;13.30;;
81353;SDS011;70810;52.038;8.524;2024-03-02T07:23:50;34.28;;;13.70;;
81353;SDS011;70810;52.038;8.524;2024-03-02T07:26:17;45.60;;;14.25;;
81353;SDS011;70810;52.038;8.524;2024-03-02T07:28:47;51.92;;;14.68;;
81353;SDS011;70810;52.038;8.524;2024-03-02T07:31:17;47.03;;;13.10;;
81353;SDS011;70810;52.038;8.524;2024-03-02T07:33:46;35.10;;;13.38;;
81353;SDS011;70810;52.038;8.524;2024-03-02T07:36:27;54.95;;;19.45;;
81353;SDS011;70810;52.038;8.524;2024-03-02T07:38:57;32.53;;;18.85;;
81353;SDS011;70810;52.038;8.524;2024-03-02T07:41:25;65.90;;;21.10;;
81353;SDS011;70810;52.038;8.524;2024-03-02T07:43:53;43.15;;;16.83;;
81353;SDS011;70810;52.038;8.524;2024-03-02T07:46:22;55.40;;;15.38;;
81353;SDS011;70810;52.038;8.524;2024-03-02T07:48:54;62.30;;;15.57;;
81353;SDS011;70810;52.038;8.524;2024-03-02T07:51:20;77.65;;;31.58;;
81353;SDS011;70810;52.038;8.524;2024-03-02T07:53:48;71.13;;;20.27;;
81353;SDS011;70810;52.038;8.524;2024-03-02T07:56:19;62.20;;;19.50;;
81353;SDS011;70810;52.038;8.524;2024-03-02T07:58:48;45.47;;;15.30;;
81353;SDS011;70810;52.038;8.524;2024-03-02T08:01:16;43.17;;;14.60;;
81353;SDS011;70810;52.038;8.524;2024-03-02T08:07:37;52.53;;;15.32;;
81353;SDS011;70810;52.038;8.524;2024-03-02T08:10:24;67.57;;;26.88;;
81353;SDS011;70810;52.038;8.524;2024-03-02T08:13:12;81.85;;;18.02;;
81353;SDS011;70810;52.038;8.524;2024-03-02T08:15:40;56.45;;;15.43;;
81353;SDS011;70810;52.038;8.524;2024-03-02T08:18:07;31.33;;;13.15;;
81353;SDS011;70810;52.038;8.524;2024-03-02T08:20:34;49.45;;;14.23;;
81353;SDS011;70810;52.038;8.524;2024-03-02T08:23:17;51.42;;;19.60;;
81353;SDS011;70810;52.038;8.524;2024-03-02T08:25:44;36.47;;;14.95;;
81353;SDS011;70810;52.038;8.524;2024-03-02T08:28:11;41.65;;;13.63;;
81353;SDS011;70810;52.038;8.524;2024-03-02T08:30:37;55.60;;;12.98;;
81353;SDS011;70810;52.038;8.524;2024-03-02T08:33:04;67.00;;;15.82;;
81353;SDS011;70810;52.038;8.524;2024-03-02T08:35:32;44.60;;;14.18;;
81353;SDS011;70810;52.038;8.524;2024-03-02T08:38:00;70.75;;;14.90;;
81353;SDS011;70810;52.038;8.524;2024-03-02T08:40:32;39.17;;;13.70;;
81353;SDS011;70810;52.038;8.524;2024-03-02T08:42:58;42.30;;;11.38;;
81353;SDS011;70810;52.038;8.524;2024-03-02T08:45:27;61.22;;;12.52;;
81353;SDS011;70810;52.038;8.524;2024-03-02T08:47:54;71.30;;;13.38;;
81353;SDS011;70810;52.038;8.524;2024-03-02T08:50:27;65.05;;;13.77;;
81353;SDS011;70810;52.038;8.524;2024-03-02T08:53:37;33.35;;;10.25;;
81353;SDS011;70810;52.038;8.524;2024-03-02T08:56:31;45.03;;;11.70;;
81353;SDS011;70810;52.038;8.524;2024-03-02T08:58:58;33.30;;;9.77;;
81353;SDS011;70810;52.038;8.524;2024-03-02T09:01:25;29.20;;;10.05;;
81353;SDS011;70810;52.038;8.524;2024-03-02T09:03:52;41.70;;;12.55;;
81353;SDS011;70810;52.038;8.524;2024-03-02T09:06:19;25.85;;;10.38;;
81353;SDS011;70810;52.038;8.524;2024-03-02T09:08:47;36.75;;;10.15;;
81353;SDS011;70810;52.038;8.524;2024-03-02T09:11:17;49.17;;;11.30;;
81353;SDS011;70810;52.038;8.524;2024-03-02T09:13:45;54.72;;;13.10;;
81353;SDS011;70810;52.038;8.524;2024-03-02T09:16:12;40.33;;;11.77;;
81353;SDS011;70810;52.038;8.524;2024-03-02T09:18:42;41.13;;;11.60;;
81353;SDS011;70810;52.038;8.524;2024-03-02T09:21:15;33.70;;;10.95;;
81353;SDS011;70810;52.038;8.524;2024-03-02T09:23:45;28.23;;;11.23;;
81353;SDS011;70810;52.038;8.524;2024-03-02T09:26:13;55.78;;;12.60;;
81353;SDS011;70810;52.038;8.524;2024-03-02T09:28:42;54.17;;;13.35;;
81353;SDS011;70810;52.038;8.524;2024-03-02T09:31:12;46.55;;;9.85;;
81353;SDS011;70810;52.038;8.524;2024-03-02T09:33:40;30.23;;;9.40;;
81353;SDS011;70810;52.038;8.524;2024-03-02T09:36:16;49.47;;;12.80;;
81353;SDS011;70810;52.038;8.524;2024-03-02T09:38:43;66.90;;;21.25;;
81353;SDS011;70810;52.038;8.524;2024-03-02T09:41:10;45.20;;;7.90;;
81353;SDS011;70810;52.038;8.524;2024-03-02T09:43:37;47.42;;;9.45;;
81353;SDS011;70810;52.038;8.524;2024-03-02T09:46:04;58.40;;;9.55;;
81353;SDS011;70810;52.038;8.524;2024-03-02T09:48:33;44.53;;;9.73;;
81353;SDS011;70810;52.038;8.524;2024-03-02T09:51:00;50.57;;;12.03;;
81353;SDS011;70810;52.038;8.524;2024-03-02T09:53:28;38.20;;;11.30;;
81353;SDS011;70810;52.038;8.524;2024-03-02T09:55:58;57.25;;;11.35;;
81353;SDS011;70810;52.038;8.524;2024-03-02T09:58:26;46.35;;;8.35;;
81353;SDS011;70810;52.038;8.524;2024-03-02T10:01:21;41.42;;;13.80;;
81353;SDS011;70810;52.038;8.524;2024-03-02T10:04:11;45.47;;;12.20;;
81353;SDS011;70810;52.038;8.524;2024-03-02T10:06:40;61.30;;;10.87;;
81353;SDS011;70810;52.038;8.524;2024-03-02T10:09:08;60.97;;;12.63;;
81353;SDS011;70810;52.038;8.524;2024-03-02T10:11:35;44.13;;;11.27;;
81353;SDS011;70810;52.038;8.524;2024-03-02T10:14:06;33.40;;;14.20;;
81353;SDS011;70810;52.038;8.524;2024-03-02T10:16:46;33.80;;;9.43;;
81353;SDS011;70810;52.038;8.524;2024-03-02T10:20:08;43.27;;;11.07;;
81353;SDS011;70810;52.038;8.524;2024-03-02T10:22:50;53.13;;;25.23;;
81353;SDS011;70810;52.038;8.524;2024-03-02T10:27:59;48.63;;;10.23;;
81353;SDS011;70810;52.038;8.524;2024-03-02T10:30:33;44.97;;;9.87;;
81353;SDS011;70810;52.038;8.524;2024-03-02T10:33:11;38.40;;;12.70;;
81353;SDS011;70810;52.038;8.524;2024-03-02T10:35:46;63.42;;;10.93;;
81353;SDS011;70810;52.038;8.524;2024-03-02T10:38:47;55.67;;;12.37;;
81353;SDS011;70810;52.038;8.524;2024-03-02T10:42:05;37.40;;;12.63;;
81353;SDS011;70810;52.038;8.524;2024-03-02T10:44:32;30.13;;;11.37;;
81353;SDS011;70810;52.038;8.524;2024-03-02T10:47:02;25.67;;;7.57;;
81353;SDS011;70810;52.038;8.524;2024-03-02T10:49:35;49.23;;;8.50;;
81353;SDS011;70810;52.038;8.524;2024-03-02T10:52:07;41.27;;;10.90;;
81353;SDS011;70810;52.038;8.524;2024-03-02T10:54:37;47.20;;;9.10;;
81353;SDS011;70810;52.038;8.524;2024-03-02T10:57:07;62.87;;;12.10;;
81353;SDS011;70810;52.038;8.524;2024-03-02T10:59:46;34.33;;;12.50;;
81353;SDS011;70810;52.038;8.524;2024-03-02T11:02:19;57.27;;;12.20;;
81353;SDS011;70810;52.038;8.524;2024-03-02T11:04:48;25.27;;;7.17;;
81353;SDS011;70810;52.038;8.524;2024-03-02T11:07:19;31.47;;;7.57;;
81353;SDS011;70810;52.038;8.524;2024-03-02T11:09:49;53.60;;;9.40;;
81353;SDS011;70810;52.038;8.524;2024-03-02T11:12:22;36.17;;;8.13;;
81353;SDS011;70810;52.038;8.524;2024-03-02T11:14:52;41.67;;;7.40;;
81353;SDS011;70810;52.038;8.524;2024-03-02T11:17:18;60.83;;;9.43;;
81353;SDS011;70810;52.038;8.524;2024-03-02T11:19:46;35.60;;;6.60;;
81353;SDS011;70810;52.038;8.524;2024-03-02T11:22:14;43.13;;;7.70;;
81353;SDS011;70810;52.038;8.524;2024-03-02T11:24:48;35.83;;;7.43;;
81353;SDS011;70810;52.038;8.524;2024-03-02T11:27:58;48.93;;;9.37;;
81353;SDS011;70810;52.038;8.524;2024-03-02T11:33:24;54.00;;;9.97;;
81353;SDS011;70810;52.038;8.524;2024-03-02T11:35:54;24.80;;;7.80;;
81353;SDS011;70810;52.038;8.524;2024-03-02T11:38:22;61.33;;;12.57;;
81353;SDS011;70810;52.038;8.524;2024-03-02T11:40:52;27.97;;;9.60;;
81353;SDS011;70810;52.038;8.524;2024-03-02T11:43:20;44.07;;;14.60;;
81353;SDS011;70810;52.038;8.524;2024-03-02T11:45:58;54.40;;;10.13;;
81353;SDS011;70810;52.038;8.524;2024-03-02T11:48:37;25.87;;;7.70;;
81353;SDS011;70810;52.038;8.524;2024-03-02T11:51:09;35.13;;;10.43;;
81353;SDS011;70810;52.038;8.524;2024-03-02T11:53:46;46.93;;;9.77;;
81353;SDS011;70810;52.038;8.524;2024-03-02T11:56:16;62.37;;;10.27;;
81353;SDS011;70810;52.038;8.524;2024-03-02T11:58:44;60.67;;;10.13;;
81353;SDS011;70810;52.038;8.524;2024-03-02T12:01:12;23.50;;;9.30;;
81353;SDS011;70810;52.038;8.524;2024-03-02T12:03:39;25.90;;;10.23;;
81353;SDS011;70810;52.038;8.524;2024-03-02T12:06:07;16.43;;;9.07;;
81353;SDS011;70810;52.038;8.524;2024-03-02T12:08:35;21.80;;;8.17;;
81353;SDS011;70810;52.038;8.524;2024-03-02T12:11:06;24.53;;;6.90;;
81353;SDS011;70810;52.038;8.524;2024-03-02T12:13:35;29.70;;;7.77;;
81353;SDS011;70810;52.038;8.524;2024-03-02T12:16:02;28.83;;;8.10;;
81353;SDS011;70810;52.038;8.524;2024-03-02T12:18:29;24.60;;;7.20;;
81353;SDS011;70810;52.038;8.524;2024-03-02T12:20:56;37.80;;;8.27;;
81353;SDS011;70810;52.038;8.524;2024-03-02T12:23:23;32.20;;;9.73;;
81353;SDS011;70810;52.038;8.524;2024-03-02T12:25:50;34.83;;;11.03;;
81353;SDS011;70810;52.038;8.524;2024-03-02T12:28:19;61.77;;;10.10;;
81353;SDS011;70810;52.038;8.524;2024-03-02T12:31:05;23.40;;;8.77;;
81353;SDS011;70810;52.038;8.524;2024-03-02T12:33:32;85.20;;;16.03;;
81353;SDS011;70810;52.038;8.524;2024-03-02T12:35:59;19.30;;;7.70;;
81353;SDS011;70810;52.038;8.524;2024-03-02T12:38:30;45.73;;;9.10;;
81353;SDS011;70810;52.038;8.524;2024-03-02T12:41:18;23.80;;;6.73;;
81353;SDS011;70810;52.038;8.524;2024-03-02T12:43:45;30.70;;;6.67;;
81353;SDS011;70810;52.038;8.524;2024-03-02T12:46:13;15.10;;;6.70;;
81353;SDS011;70810;52.038;8.524;2024-03-02T12:48:45;10.77;;;7.47;;
81353;SDS011;70810;52.038;8.524;2024-03-02T12:51:21;36.93;;;13.37;;
81353;SDS011;70810;52.038;8.524;2024-03-02T12:53:52;8.23;;;5.50;;
81353;SDS011;70810;52.038;8.524;2024-03-02T12:56:20;15.80;;;8.17;;
81353;SDS011;70810;52.038;8.524;2024-03-02T12:58:47;18.00;;;5.90;;
81353;SDS011;70810;52.038;8.524;2024-03-02T13:01:20;11.73;;;8.07;;
81353;SDS011;70810;52.038;8.524;2024-03-02T13:03:48;9.30;;;6.07;;
81353;SDS011;70810;52.038;8.524;2024-03-02T13:06:16;19.80;;;5.70;;
81353;SDS011;70810;52.038;8.524;2024-03-02T13:08:44;17.80;;;6.00;;
81353;SDS011;70810;52.038;8.524;2024-03-02T13:11:12;8.47;;;5.50;;
81353;SDS011;70810;52.038;8.524;2024-03-02T13:13:46;54.33;;;12.77;;
81353;SDS011;70810;52.038;8.524;2024-03-02T13:16:17;26.10;;;7.73;;
81353;SDS011;70810;52.038;8.524;2024-03-02T13:21:35;76.07;;;13.70;;
81353;SDS011;70810;52.038;8.524;2024-03-02T13:24:04;27.03;;;6.80;;
81353;SDS011;70810;52.038;8.524;2024-03-02T13:26:32;25.03;;;6.50;;
81353;SDS011;70810;52.038;8.524;2024-03-02T13:28:59;38.13;;;7.67;;
81353;SDS011;70810;52.038;8.524;2024-03-02T13:31:25;20.40;;;6.27;;
81353;SDS011;70810;52.038;8.524;2024-03-02T13:33:52;27.17;;;5.73;;
81353;SDS011;70810;52.038;8.524;2024-03-02T13:36:20;20.83;;;7.23;;
81353;SDS011;70810;52.038;8.524;2024-03-02T13:38:49;41.17;;;7.33;;
81353;SDS011;70810;52.038;8.524;2024-03-02T13:41:37;20.00;;;6.90;;
81353;SDS011;70810;52.038;8.524;2024-03-02T13:44:28;26.13;;;8.20;;
81353;SDS011;70810;52.038;8.524;2024-03-02T13:47:40;36.57;;;7.47;;
81353;SDS011;70810;52.038;8.524;2024-03-02T13:50:08;30.87;;;7.07;;
81353;SDS011;70810;52.038;8.524;2024-03-02T13:52:37;20.80;;;4.93;;
81353;SDS011;70810;52.038;8.524;2024-03-02T13:55:06;22.63;;;6.67;;
81353;SDS011;70810;52.038;8.524;2024-03-02T13:57:36;26.43;;;6.33;;
81353;SDS011;70810;52.038;8.524;2024-03-02T14:00:03;26.50;;;7.30;;
81353;SDS011;70810;52.038;8.524;2024-03-02T14:02:35;42.27;;;7.03;;
81353;SDS011;70810;52.038;8.524;2024-03-02T14:05:03;20.70;;;6.03;;
81353;SDS011;70810;52.038;8.524;2024-03-02T14:10:44;37.53;;;9.00;;
81353;SDS011;70810;52.038;8.524;2024-03-02T14:13:13;24.97;;;6.53;;
81353;SDS011;70810;52.038;8.524;2024-03-02T14:15:43;22.70;;;7.60;;
81353;SDS011;70810;52.038;8.524;2024-03-02T14:18:20;25.97;;;7.00;;
81353;SDS011;70810;52.038;8.524;2024-03-02T14:21:09;22.13;;;6.00;;
81353;SDS011;70810;52.038;8.524;2024-03-02T14:24:22;28.73;;;7.60;;
81353;SDS011;70810;52.038;8.524;2024-03-02T14:26:53;33.27;;;6.73;;
81353;SDS011;70810;52.038;8.524;2024-03-02T14:29:23;33.47;;;6.13;;
81353;SDS011;70810;52.038;8.524;2024-03-02T14:31:56;23.37;;;7.67;;
81353;SDS011;70810;52.038;8.524;2024-03-02T14:34:30;26.70;;;7.17;;
81353;SDS011;70810;52.038;8.524;2024-03-02T14:37:17;18.53;;;5.47;;
81353;SDS011;70810;52.038;8.524;2024-03-02T14:40:13;40.57;;;8.13;;
81353;SDS011;70810;52.038;8.524;2024-03-02T14:42:41;34.03;;;11.97;;
81353;SDS011;70810;52.038;8.524;2024-03-02T14:45:12;11.53;;;6.50;;
81353;SDS011;70810;52.038;8.524;2024-03-02T14:47:39;29.03;;;7.80;;
81353;SDS011;70810;52.038;8.524;2024-03-02T14:50:06;30.23;;;4.93;;
81353;SDS011;70810;52.038;8.524;2024-03-02T14:52:36;40.43;;;8.63;;
81353;SDS011;70810;52.038;8.524;2024-03-02T14:58:34;23.87;;;6.40;;
81353;SDS011;70810;52.038;8.524;2024-03-02T15:01:10;37.40;;;9.60;;
81353;SDS011;70810;52.038;8.524;2024-03-02T15:03:41;31.83;;;11.50;;
81353;SDS011;70810;52.038;8.524;2024-03-02T15:06:08;25.87;;;6.87;;